createdAt,value
2022-11-28T00:01:23.437Z,18.17
2022-11-28T00:03:50.587Z,18.50
2022-11-28T00:06:18.198Z,19.23
2022-11-28T00:08:45.620Z,19.97
2022-11-28T00:11:14.120Z,18.77
2022-11-28T00:13:41.490Z,19.00
2022-11-28T00:16:09.350Z,19.00
2022-11-28T00:18:36.786Z,18.77
2022-11-28T00:21:06.070Z,19.33
2022-11-28T00:23:33.536Z,19.97
2022-11-28T00:26:01.997Z,20.07
2022-11-28T00:28:29.214Z,18.13
2022-11-28T00:30:56.404Z,19.10
2022-11-28T00:33:23.633Z,19.37
2022-11-28T00:35:50.978Z,19.33
2022-11-28T00:38:18.218Z,19.47
2022-11-28T00:40:45.340Z,19.67
2022-11-28T00:43:12.972Z,19.17
2022-11-28T00:45:40.149Z,18.80
2022-11-28T00:48:07.334Z,18.83
2022-11-28T00:50:34.487Z,19.93
2022-11-28T00:53:01.563Z,18.73
2022-11-28T00:55:28.681Z,20.17
2022-11-28T00:57:55.851Z,20.83
2022-11-28T01:00:23.046Z,20.33
2022-11-28T01:02:50.729Z,19.50
2022-11-28T01:05:17.943Z,20.53
2022-11-28T01:07:45.112Z,19.60
2022-11-28T01:10:12.636Z,19.23
2022-11-28T01:12:39.961Z,19.70
2022-11-28T01:15:08.523Z,19.60
2022-11-28T01:17:35.650Z,20.60
2022-11-28T01:20:03.032Z,18.93
2022-11-28T01:22:30.145Z,19.10
2022-11-28T01:24:57.232Z,17.93
2022-11-28T01:27:24.348Z,20.33
2022-11-28T01:29:51.529Z,18.77
2022-11-28T01:32:19.093Z,18.73
2022-11-28T01:34:46.208Z,18.73
2022-11-28T01:37:13.342Z,17.83
2022-11-28T01:39:40.532Z,18.80
2022-11-28T01:42:07.707Z,18.10
2022-11-28T01:44:34.851Z,18.57
2022-11-28T01:47:02.010Z,18.53
2022-11-28T01:49:31.457Z,18.33
2022-11-28T01:52:00.706Z,17.90
2022-11-28T01:54:29.019Z,17.37
2022-11-28T01:56:57.987Z,16.57
2022-11-28T01:59:26.883Z,17.10
2022-11-28T02:01:54.071Z,17.47
2022-11-28T02:04:21.202Z,18.13
2022-11-28T02:06:48.293Z,17.57
2022-11-28T02:09:16.830Z,17.57
2022-11-28T02:11:47.012Z,17.50
2022-11-28T02:14:14.095Z,19.37
2022-11-28T02:16:49.811Z,14.70
2022-11-28T02:19:20.089Z,18.87
2022-11-28T02:21:59.454Z,18.17
2022-11-28T02:24:29.622Z,17.83
2022-11-28T02:27:12.646Z,19.30
2022-11-28T02:29:48.839Z,17.13
2022-11-28T02:32:34.773Z,18.13
2022-11-28T02:35:31.196Z,18.20
2022-11-28T02:38:21.582Z,19.53
2022-11-28T02:40:48.649Z,18.43
2022-11-28T02:43:22.235Z,19.23
2022-11-28T02:46:04.341Z,18.57
2022-11-28T02:48:50.764Z,19.40
2022-11-28T02:51:17.872Z,19.37
2022-11-28T02:53:46.170Z,20.03
2022-11-28T02:56:13.842Z,20.77
2022-11-28T02:58:41.030Z,19.43
2022-11-28T03:01:13.507Z,19.40
2022-11-28T03:03:49.791Z,20.43
2022-11-28T03:06:37.187Z,19.83
2022-11-28T03:09:12.205Z,18.30
2022-11-28T03:11:54.533Z,18.27
2022-11-28T03:14:29.703Z,18.17
2022-11-28T03:17:32.136Z,17.80
2022-11-28T03:20:17.724Z,18.00
2022-11-28T03:23:03.097Z,16.17
2022-11-28T03:25:42.372Z,16.73
2022-11-28T03:28:15.222Z,17.07
2022-11-28T03:30:51.572Z,17.10
2022-11-28T03:33:21.279Z,16.60
2022-11-28T03:35:52.267Z,16.87
2022-11-28T03:38:26.804Z,17.07
2022-11-28T03:40:55.871Z,16.83
2022-11-28T03:43:25.135Z,17.20
2022-11-28T03:45:56.060Z,17.10
2022-11-28T03:48:33.363Z,15.87
2022-11-28T03:51:03.826Z,16.23
2022-11-28T03:53:42.920Z,17.23
2022-11-28T03:56:12.833Z,17.93
2022-11-28T03:58:58.738Z,17.57
2022-11-28T04:01:29.069Z,18.23
2022-11-28T04:04:10.139Z,17.57
2022-11-28T04:06:42.991Z,17.43
2022-11-28T04:09:14.663Z,18.37
2022-11-28T04:12:02.177Z,19.30
2022-11-28T04:14:34.109Z,17.43
2022-11-28T04:17:21.485Z,18.70
2022-11-28T04:19:54.605Z,17.63
2022-11-28T04:22:54.198Z,18.23
2022-11-28T04:25:22.396Z,18.17
2022-11-28T04:27:52.543Z,18.57
2022-11-28T04:30:19.707Z,19.10
2022-11-28T04:32:48.285Z,18.77
2022-11-28T04:35:19.660Z,18.67
2022-11-28T04:37:48.772Z,17.53
2022-11-28T04:40:16.831Z,19.13
2022-11-28T04:42:53.204Z,18.17
2022-11-28T04:45:32.037Z,18.90
2022-11-28T04:47:59.269Z,19.00
2022-11-28T04:50:29.690Z,18.80
2022-11-28T04:53:01.139Z,19.43
2022-11-28T04:55:35.563Z,19.63
2022-11-28T04:58:19.083Z,18.33
2022-11-28T05:00:47.356Z,20.17
2022-11-28T05:03:14.634Z,19.93
2022-11-28T05:05:43.154Z,18.93
2022-11-28T05:08:10.382Z,20.37
2022-11-28T05:10:37.631Z,19.63
2022-11-28T05:13:05.077Z,20.77
2022-11-28T05:15:32.486Z,20.77
2022-11-28T05:17:59.933Z,19.67
2022-11-28T05:20:27.442Z,20.30
2022-11-28T05:22:54.528Z,20.60
2022-11-28T05:25:21.690Z,19.27
2022-11-28T05:27:48.826Z,20.13
2022-11-28T05:30:16.058Z,19.67
2022-11-28T05:32:43.211Z,19.30
2022-11-28T05:35:10.545Z,17.23
2022-11-28T05:37:37.725Z,20.20
2022-11-28T05:40:05.279Z,19.40
2022-11-28T05:42:35.971Z,21.27
2022-11-28T05:45:03.613Z,21.40
2022-11-28T05:47:31.633Z,20.33
2022-11-28T05:49:58.852Z,19.63
2022-11-28T05:52:26.067Z,19.40
2022-11-28T05:54:53.162Z,20.67
2022-11-28T05:57:20.326Z,20.00
2022-11-28T05:59:47.421Z,19.13
2022-11-28T06:02:14.603Z,19.53
2022-11-28T06:04:42.080Z,20.33
2022-11-28T06:07:09.310Z,19.93
2022-11-28T06:09:36.510Z,20.40
2022-11-28T06:12:03.657Z,21.07
2022-11-28T06:14:30.711Z,20.50
2022-11-28T06:16:57.944Z,21.40
2022-11-28T06:19:25.093Z,21.30
2022-11-28T06:21:52.514Z,22.10
2022-11-28T06:24:19.597Z,21.33
2022-11-28T06:26:46.732Z,21.30
2022-11-28T06:29:13.842Z,21.67
2022-11-28T06:31:41.040Z,20.97
2022-11-28T06:34:08.165Z,22.50
2022-11-28T06:36:35.308Z,20.87
2022-11-28T06:39:02.395Z,22.83
2022-11-28T06:41:29.534Z,21.20
2022-11-28T06:43:57.291Z,21.97
2022-11-28T06:46:24.642Z,22.93
2022-11-28T06:48:52.970Z,22.03
2022-11-28T06:51:20.559Z,21.37
2022-11-28T06:53:47.837Z,21.57
2022-11-28T06:56:16.607Z,21.40
2022-11-28T06:58:44.096Z,21.60
2022-11-28T07:01:12.972Z,22.57
2022-11-28T07:03:40.628Z,20.73
2022-11-28T07:06:08.370Z,22.00
2022-11-28T07:08:35.666Z,23.33
2022-11-28T07:11:11.889Z,22.77
2022-11-28T07:13:39.085Z,23.13
2022-11-28T07:16:06.414Z,21.87
2022-11-28T07:18:33.816Z,23.93
2022-11-28T07:21:01.050Z,24.30
2022-11-28T07:23:28.110Z,24.30
2022-11-28T07:25:59.882Z,23.50
2022-11-28T07:28:27.442Z,22.70
2022-11-28T07:31:05.432Z,23.37
2022-11-28T07:33:33.010Z,21.77
2022-11-28T07:36:00.746Z,23.00
2022-11-28T07:38:27.868Z,23.57
2022-11-28T07:40:56.077Z,22.93
2022-11-28T07:43:23.147Z,23.10
2022-11-28T07:46:00.419Z,24.50
2022-11-28T07:48:28.561Z,22.77
2022-11-28T07:50:55.668Z,23.80
2022-11-28T07:53:22.762Z,23.30
2022-11-28T07:55:49.905Z,23.53
2022-11-28T07:58:17.092Z,23.03
2022-11-28T08:00:44.199Z,25.57
2022-11-28T08:03:11.294Z,22.80
2022-11-28T08:05:38.522Z,23.87
2022-11-28T08:08:06.027Z,23.40
2022-11-28T08:10:33.195Z,23.30
2022-11-28T08:13:00.501Z,22.50
2022-11-28T08:15:31.644Z,22.00
2022-11-28T08:17:58.773Z,22.00
2022-11-28T08:20:25.921Z,21.90
2022-11-28T08:22:53.044Z,23.43
2022-11-28T08:25:20.172Z,22.83
2022-11-28T08:27:47.251Z,23.70
2022-11-28T08:30:14.444Z,21.70
2022-11-28T08:32:41.533Z,23.13
2022-11-28T08:35:08.768Z,21.97
2022-11-28T08:37:35.856Z,23.27
2022-11-28T08:40:03.189Z,22.90
2022-11-28T08:42:30.266Z,22.33
2022-11-28T08:44:57.352Z,21.80
2022-11-28T08:47:24.494Z,23.47
2022-11-28T08:49:51.574Z,23.87
2022-11-28T08:52:18.667Z,21.70
2022-11-28T08:54:45.976Z,24.90
2022-11-28T08:57:13.264Z,22.97
2022-11-28T08:59:40.609Z,23.73
2022-11-28T09:02:10.227Z,22.77
2022-11-28T09:04:37.490Z,31.77
2022-11-28T09:07:04.731Z,24.90
2022-11-28T09:09:32.967Z,23.37
2022-11-28T09:12:00.159Z,22.47
2022-11-28T09:14:27.832Z,23.07
2022-11-28T09:16:55.006Z,23.60
2022-11-28T09:19:22.466Z,21.90
2022-11-28T09:21:54.621Z,22.60
2022-11-28T09:24:24.625Z,21.57
2022-11-28T09:26:51.773Z,20.57
2022-11-28T09:29:18.963Z,20.83
2022-11-28T09:31:47.705Z,20.37
2022-11-28T09:34:14.985Z,21.17
2022-11-28T09:36:42.136Z,21.47
2022-11-28T09:39:09.233Z,21.60
2022-11-28T09:41:36.409Z,21.93
2022-11-28T09:44:15.322Z,21.17
2022-11-28T09:46:43.250Z,21.37
2022-11-28T09:49:18.530Z,21.90
2022-11-28T09:51:50.646Z,22.70
2022-11-28T09:54:33.130Z,21.70
2022-11-28T09:57:01.164Z,21.17
2022-11-28T09:59:29.777Z,21.27
2022-11-28T10:02:04.994Z,20.70
2022-11-28T10:04:50.890Z,21.27
2022-11-28T10:07:20.896Z,20.70
2022-11-28T10:10:07.962Z,21.17
2022-11-28T10:12:35.041Z,20.47
2022-11-28T10:15:02.180Z,21.37
2022-11-28T10:17:37.582Z,22.07
2022-11-28T10:20:22.657Z,21.90
2022-11-28T10:22:52.907Z,22.40
2022-11-28T10:25:22.953Z,22.40
2022-11-28T10:27:50.696Z,21.93
2022-11-28T10:30:25.921Z,21.10
2022-11-28T10:32:56.651Z,22.00
2022-11-28T10:35:28.131Z,18.80
2022-11-28T10:37:55.773Z,20.23
2022-11-28T10:40:43.822Z,21.40
2022-11-28T10:43:29.546Z,21.97
2022-11-28T10:46:12.048Z,22.27
2022-11-28T10:48:56.857Z,21.40
2022-11-28T10:51:26.675Z,20.47
2022-11-28T10:53:59.699Z,22.50
2022-11-28T10:56:29.921Z,22.00
2022-11-28T10:59:02.820Z,20.13
2022-11-28T11:01:32.117Z,19.97
2022-11-28T11:03:59.265Z,21.57
2022-11-28T11:06:36.144Z,19.73
2022-11-28T11:09:08.637Z,20.53
2022-11-28T11:11:37.830Z,19.43
2022-11-28T11:14:07.127Z,20.23
2022-11-28T11:16:53.882Z,19.83
2022-11-28T11:19:31.483Z,19.93
2022-11-28T11:22:03.691Z,20.17
2022-11-28T11:24:31.247Z,20.57
2022-11-28T11:27:24.713Z,21.47
2022-11-28T11:29:52.389Z,21.17
2022-11-28T11:32:21.838Z,20.13
2022-11-28T11:34:49.161Z,23.33
2022-11-28T11:37:22.641Z,21.73
2022-11-28T11:39:54.036Z,20.13
2022-11-28T11:42:28.347Z,19.27
2022-11-28T11:44:55.856Z,19.27
2022-11-28T11:47:41.225Z,18.83
2022-11-28T11:50:16.061Z,19.43
2022-11-28T11:52:43.160Z,19.60
2022-11-28T11:55:15.827Z,20.37
2022-11-28T11:57:51.551Z,20.70
2022-11-28T12:00:21.625Z,20.50
2022-11-28T12:03:04.092Z,20.30
2022-11-28T12:05:52.745Z,19.57
2022-11-28T12:08:25.411Z,21.30
2022-11-28T12:10:54.313Z,21.00
2022-11-28T12:13:22.666Z,21.00
2022-11-28T12:16:08.730Z,22.53
2022-11-28T12:18:49.076Z,22.50
2022-11-28T12:21:24.077Z,20.87
2022-11-28T12:23:57.110Z,22.00
2022-11-28T12:26:24.207Z,19.50
2022-11-28T12:29:09.356Z,19.47
2022-11-28T12:31:44.254Z,18.50
2022-11-28T12:34:11.429Z,19.13
2022-11-28T12:36:38.566Z,18.70
2022-11-28T12:39:05.640Z,18.97
2022-11-28T12:41:52.959Z,19.90
2022-11-28T12:44:32.693Z,19.13
2022-11-28T12:46:59.740Z,18.47
2022-11-28T12:49:49.703Z,18.73
2022-11-28T12:52:16.767Z,18.17
2022-11-28T12:54:57.911Z,18.20
2022-11-28T12:57:24.989Z,18.03
2022-11-28T13:00:09.757Z,17.63
2022-11-28T13:02:39.958Z,17.67
2022-11-28T13:05:07.066Z,17.60
2022-11-28T13:07:43.135Z,18.23
2022-11-28T13:10:17.392Z,19.13
2022-11-28T13:12:51.638Z,19.30
2022-11-28T13:15:21.902Z,19.33
2022-11-28T13:17:54.767Z,18.97
2022-11-28T13:20:26.929Z,18.97
2022-11-28T13:23:14.290Z,19.23
2022-11-28T13:25:48.823Z,20.90
2022-11-28T13:28:21.830Z,19.57
2022-11-28T13:30:54.216Z,18.03
2022-11-28T13:33:21.350Z,18.90
2022-11-28T13:35:48.588Z,18.70
2022-11-28T13:41:52.589Z,20.33
2022-11-28T13:44:35.238Z,20.43
2022-11-28T13:47:35.139Z,22.30
2022-11-28T13:50:20.723Z,20.20
2022-11-28T13:52:58.176Z,18.17
2022-11-28T13:55:37.200Z,19.90
2022-11-28T13:58:22.290Z,19.53
2022-11-28T14:01:08.842Z,19.23
2022-11-28T14:04:00.321Z,19.00
2022-11-28T14:06:31.714Z,17.70
2022-11-28T14:09:09.555Z,19.40
2022-11-28T14:11:36.630Z,19.23
2022-11-28T14:14:22.645Z,19.30
2022-11-28T14:16:58.872Z,18.10
2022-11-28T14:19:31.794Z,19.63
2022-11-28T14:22:17.388Z,20.87
2022-11-28T14:24:54.939Z,19.70
2022-11-28T14:27:24.023Z,20.50
2022-11-28T14:29:52.727Z,21.30
2022-11-28T14:32:30.891Z,20.73
2022-11-28T14:34:58.647Z,18.60
2022-11-28T14:37:27.432Z,18.53
2022-11-28T14:39:55.411Z,18.93
2022-11-28T14:42:52.021Z,18.07
2022-11-28T14:45:28.530Z,19.93
2022-11-28T14:48:14.187Z,19.10
2022-11-28T14:50:41.291Z,18.20
2022-11-28T14:53:40.576Z,18.50
2022-11-28T14:56:10.346Z,19.37
2022-11-28T14:58:37.589Z,18.37
2022-11-28T15:01:05.929Z,19.33
2022-11-28T15:03:38.932Z,19.33
2022-11-28T15:06:35.282Z,17.83
2022-11-28T15:09:07.630Z,20.57
2022-11-28T15:11:34.703Z,20.10
2022-11-28T15:14:11.009Z,19.40
2022-11-28T15:16:48.228Z,19.70
2022-11-28T15:19:21.490Z,21.77
2022-11-28T15:21:49.747Z,22.57
2022-11-28T15:24:32.078Z,19.10
2022-11-28T15:27:08.228Z,21.43
2022-11-28T15:29:36.241Z,21.40
2022-11-28T15:32:03.879Z,21.07
2022-11-28T15:34:35.501Z,21.43
2022-11-28T15:37:07.088Z,22.83
2022-11-28T15:39:35.324Z,21.23
2022-11-28T15:42:04.945Z,22.77
2022-11-28T15:44:32.186Z,22.43
2022-11-28T15:46:59.690Z,23.37
2022-11-28T15:49:29.342Z,24.27
2022-11-28T15:51:59.721Z,21.50
2022-11-28T15:54:35.874Z,22.53
2022-11-28T15:57:03.803Z,24.80
2022-11-28T15:59:30.971Z,24.30
2022-11-28T16:02:01.664Z,22.47
2022-11-28T16:04:28.941Z,23.10
2022-11-28T16:06:57.349Z,22.60
2022-11-28T16:09:24.436Z,22.87
2022-11-28T16:11:53.335Z,22.67
2022-11-28T16:14:30.969Z,24.67
2022-11-28T16:16:59.101Z,22.47
2022-11-28T16:19:29.041Z,24.27
2022-11-28T16:21:58.928Z,25.03
2022-11-28T16:24:40.461Z,29.10
2022-11-28T16:27:07.616Z,29.33
2022-11-28T16:29:35.838Z,29.50
2022-11-28T16:32:09.218Z,28.00
2022-11-28T16:34:49.472Z,29.07
2022-11-28T16:37:27.122Z,27.43
2022-11-28T16:40:00.502Z,29.87
2022-11-28T16:42:27.854Z,29.47
2022-11-28T16:44:54.935Z,31.40
2022-11-28T16:47:24.861Z,36.57
2022-11-28T16:50:15.656Z,37.30
2022-11-28T16:52:45.698Z,33.57
2022-11-28T16:55:28.213Z,31.83
2022-11-28T16:58:11.834Z,29.67
2022-11-28T17:00:40.270Z,28.40
2022-11-28T17:03:11.706Z,29.63
2022-11-28T17:05:40.078Z,30.20
2022-11-28T17:08:08.492Z,30.30
2022-11-28T17:10:35.657Z,30.47
2022-11-28T17:13:02.791Z,28.00
2022-11-28T17:15:29.862Z,27.40
2022-11-28T17:17:57.834Z,27.00
2022-11-28T17:20:24.930Z,25.40
2022-11-28T17:22:54.375Z,26.00
2022-11-28T17:25:21.590Z,26.70
2022-11-28T17:27:48.756Z,26.73
2022-11-28T17:30:16.536Z,25.53
2022-11-28T17:32:43.700Z,25.57
2022-11-28T17:35:14.638Z,25.20
2022-11-28T17:37:41.766Z,25.57
2022-11-28T17:40:27.905Z,25.50
2022-11-28T17:42:55.021Z,27.30
2022-11-28T17:45:22.510Z,27.47
2022-11-28T17:47:49.601Z,28.97
2022-11-28T17:50:17.580Z,31.13
2022-11-28T17:52:44.720Z,31.13
2022-11-28T17:55:11.831Z,30.30
2022-11-28T17:57:39.356Z,31.13
2022-11-28T18:00:07.219Z,31.87
2022-11-28T18:02:34.521Z,34.33
2022-11-28T18:05:01.798Z,26.70
2022-11-28T18:07:29.999Z,26.57
2022-11-28T18:09:57.118Z,28.63
2022-11-28T18:12:24.236Z,28.70
2022-11-28T18:14:51.309Z,27.87
2022-11-28T18:17:18.456Z,28.83
2022-11-28T18:19:45.775Z,28.43
2022-11-28T18:22:12.981Z,30.07
2022-11-28T18:24:40.082Z,27.17
2022-11-28T18:27:07.157Z,28.83
2022-11-28T18:29:34.341Z,28.90
2022-11-28T18:32:02.011Z,31.03
2022-11-28T18:34:29.132Z,31.67
2022-11-28T18:37:00.608Z,29.43
2022-11-28T18:39:28.049Z,30.37
2022-11-28T18:41:56.363Z,31.20
2022-11-28T18:44:23.461Z,31.40
2022-11-28T18:46:50.551Z,30.80
2022-11-28T18:49:19.165Z,30.83
2022-11-28T18:51:46.328Z,31.53
2022-11-28T18:54:19.220Z,32.90
2022-11-28T18:56:47.796Z,32.87
2022-11-28T18:59:14.907Z,32.33
2022-11-28T19:01:42.018Z,31.20
2022-11-28T19:04:11.027Z,35.03
2022-11-28T19:06:39.394Z,34.97
2022-11-28T19:09:07.874Z,31.33
2022-11-28T19:11:35.018Z,30.40
2022-11-28T19:14:02.129Z,32.50
2022-11-28T19:16:30.527Z,32.63
2022-11-28T19:18:58.338Z,30.70
2022-11-28T19:21:26.598Z,31.00
2022-11-28T19:23:55.531Z,31.90
2022-11-28T19:26:23.430Z,30.40
2022-11-28T19:28:51.063Z,31.90
2022-11-28T19:31:21.116Z,31.73
2022-11-28T19:33:49.166Z,32.43
2022-11-28T19:36:16.281Z,30.60
2022-11-28T19:38:43.388Z,33.00
2022-11-28T19:41:11.653Z,31.53
2022-11-28T19:43:38.724Z,32.40
2022-11-28T19:46:06.067Z,33.73
2022-11-28T19:48:33.773Z,33.97
2022-11-28T19:51:00.958Z,34.70
2022-11-28T19:53:29.412Z,35.20
2022-11-28T19:55:56.777Z,34.67
2022-11-28T19:58:24.121Z,35.43
2022-11-28T20:00:51.197Z,34.80
2022-11-28T20:03:18.355Z,37.47
2022-11-28T20:05:45.463Z,38.90
2022-11-28T20:08:12.592Z,39.03
2022-11-28T20:10:39.975Z,39.50
2022-11-28T20:13:07.090Z,38.83
2022-11-28T20:15:37.204Z,43.70
2022-11-28T20:18:04.380Z,39.77
2022-11-28T20:20:31.474Z,37.73
2022-11-28T20:22:59.866Z,41.23
2022-11-28T20:25:27.044Z,44.10
2022-11-28T20:27:54.339Z,38.43
2022-11-28T20:30:21.495Z,40.03
2022-11-28T20:32:48.560Z,40.73
2022-11-28T20:35:15.670Z,39.30
2022-11-28T20:37:42.767Z,41.43
2022-11-28T20:40:10.061Z,41.17
2022-11-28T20:42:39.995Z,40.57
2022-11-28T20:45:07.662Z,38.27
2022-11-28T20:47:35.135Z,40.83
2022-11-28T20:50:02.389Z,42.70
2022-11-28T20:52:29.471Z,41.77
2022-11-28T20:54:56.645Z,36.20
2022-11-28T20:57:23.723Z,38.00
2022-11-28T20:59:51.030Z,39.53
2022-11-28T21:02:18.607Z,37.90
2022-11-28T21:04:45.931Z,37.53
2022-11-28T21:07:13.025Z,36.93
2022-11-28T21:09:40.104Z,35.20
2022-11-28T21:12:07.344Z,36.53
2022-11-28T21:14:34.526Z,32.53
2022-11-28T21:17:01.681Z,34.53
2022-11-28T21:19:28.829Z,34.10
2022-11-28T21:21:55.970Z,34.37
2022-11-28T21:24:23.287Z,32.57
2022-11-28T21:26:53.849Z,32.03
2022-11-28T21:29:21.823Z,34.63
2022-11-28T21:31:49.030Z,32.37
2022-11-28T21:34:17.550Z,35.77
2022-11-28T21:36:44.914Z,36.80
2022-11-28T21:39:16.430Z,37.37
2022-11-28T21:41:43.553Z,39.63
2022-11-28T21:44:10.709Z,38.13
2022-11-28T21:46:37.865Z,38.47
2022-11-28T21:49:05.581Z,39.30
2022-11-28T21:51:32.774Z,36.43
2022-11-28T21:53:59.951Z,36.20
2022-11-28T21:56:27.237Z,34.27
2022-11-28T21:58:54.824Z,35.67
2022-11-28T22:01:22.321Z,35.43
2022-11-28T22:03:49.788Z,32.53
2022-11-28T22:06:18.257Z,32.90
2022-11-28T22:08:45.683Z,30.80
2022-11-28T22:11:13.398Z,33.80
2022-11-28T22:13:42.247Z,34.23
2022-11-28T22:16:14.944Z,32.90
2022-11-28T22:18:42.148Z,34.03
2022-11-28T22:21:49.426Z,34.20
2022-11-28T22:23:56.894Z,34.30
2022-11-28T22:26:24.032Z,30.20
2022-11-28T22:28:53.809Z,32.33
2022-11-28T22:31:21.668Z,31.23
2022-11-28T22:33:49.902Z,30.50
2022-11-28T22:36:18.186Z,30.63
2022-11-28T22:38:45.733Z,30.80
2022-11-28T22:41:14.105Z,30.43
2022-11-28T22:43:41.361Z,31.73
2022-11-28T22:46:08.959Z,29.73
2022-11-28T22:48:36.659Z,30.60
2022-11-28T22:51:10.864Z,31.67
2022-11-28T22:53:38.003Z,31.23
2022-11-28T22:56:05.702Z,34.30
2022-11-28T22:58:42.686Z,31.37
2022-11-28T23:01:10.950Z,31.27
2022-11-28T23:03:38.122Z,29.50
2022-11-28T23:06:09.221Z,31.70
2022-11-28T23:08:36.740Z,30.70
2022-11-28T23:11:07.689Z,30.40
2022-11-28T23:13:35.770Z,28.70
2022-11-28T23:16:13.980Z,29.63
2022-11-28T23:18:41.422Z,30.27
2022-11-28T23:21:09.061Z,32.30
2022-11-28T23:23:36.564Z,31.30
2022-11-28T23:26:05.475Z,32.63
2022-11-28T23:28:32.896Z,36.57
2022-11-28T23:31:10.676Z,39.43
2022-11-28T23:33:38.556Z,38.00
2022-11-28T23:36:14.839Z,33.07
2022-11-28T23:38:42.329Z,32.03
2022-11-28T23:41:09.733Z,33.27
2022-11-28T23:43:36.854Z,36.37
2022-11-28T23:46:04.206Z,38.47
2022-11-28T23:48:31.313Z,33.33
2022-11-28T23:50:58.418Z,33.47
2022-11-28T23:53:25.588Z,35.80
2022-11-28T23:55:52.761Z,38.27
2022-11-28T23:58:19.964Z,40.07
